Time;durP1;ratioP1;P1;durP2;ratioP2;P2;SDS_P1;SDS_P2;PMS_P1;PMS_P2;Temp;Humidity;BMP_temperature;BMP_pressure;BME280_temperature;BME280_humidity;BME280_pressure;Samples;Min_cycle;Max_cycle;Signal;HPM_P1;HPM_P2
2021/01/14 00:01:11;;;;;;;11.18;1.63;;;1.70;96.30;;;;;;4989337;28;20063;-79
2021/01/14 00:03:36;;;;;;;9.10;1.77;;;1.60;95.90;;;;;;4989755;28;20086;-79
2021/01/14 00:06:02;;;;;;;7.47;1.23;;;1.50;95.80;;;;;;5006573;28;20402;-79
2021/01/14 00:08:27;;;;;;;8.00;1.30;;;1.50;95.70;;;;;;4989320;28;20030;-79
2021/01/14 00:10:53;;;;;;;6.50;0.95;;;1.40;95.40;;;;;;5022003;28;20426;-80
2021/01/14 00:13:19;;;;;;;9.10;1.48;;;1.50;95.70;;;;;;4989454;28;20037;-78
2021/01/14 00:15:44;;;;;;;5.43;1.65;;;1.40;95.60;;;;;;5021867;28;20026;-79
2021/01/14 00:18:12;;;;;;;4.13;0.68;;;1.30;95.40;;;;;;5005660;28;20041;-79
2021/01/14 00:20:37;;;;;;;6.65;1.38;;;1.40;95.50;;;;;;5004994;27;20064;-80
2021/01/14 00:23:03;;;;;;;6.75;1.17;;;1.40;95.30;;;;;;5005436;27;20466;-80
2021/01/14 00:25:28;;;;;;;9.52;1.10;;;1.40;95.40;;;;;;4989315;28;20033;-79
2021/01/14 00:27:55;;;;;;;7.15;1.55;;;1.30;95.60;;;;;;4990155;28;20033;-78
2021/01/14 00:30:25;;;;;;;7.95;1.00;;;1.30;95.50;;;;;;5005582;28;20508;-79
2021/01/14 00:32:51;;;;;;;8.90;1.75;;;1.30;95.60;;;;;;5004559;28;20033;-80
2021/01/14 00:35:16;;;;;;;5.07;1.02;;;1.30;95.00;;;;;;4987453;28;20047;-79
2021/01/14 00:37:51;;;;;;;9.70;1.95;;;1.30;95.40;;;;;;4989231;28;20026;-80
2021/01/14 00:40:26;;;;;;;7.60;1.58;;;1.20;95.50;;;;;;4991636;28;20044;-79
2021/01/14 00:42:56;;;;;;;9.23;1.20;;;1.20;95.40;;;;;;4984409;27;20029;-80
2021/01/14 00:45:21;;;;;;;5.68;0.82;;;1.10;95.40;;;;;;5005648;27;20140;-80
2021/01/14 00:47:47;;;;;;;11.02;1.15;;;1.30;95.00;;;;;;4988174;28;20517;-80
2021/01/14 00:50:13;;;;;;;10.75;1.08;;;1.30;94.40;;;;;;4987517;28;20111;-80
2021/01/14 00:52:39;;;;;;;5.60;1.13;;;1.10;95.10;;;;;;4988465;28;20476;-80
2021/01/14 00:55:06;;;;;;;11.75;1.30;;;1.10;95.50;;;;;;4988219;28;20094;-80
2021/01/14 00:57:34;;;;;;;7.47;1.23;;;1.00;95.30;;;;;;5005140;28;20492;-81
2021/01/14 01:00:00;;;;;;;6.75;1.35;;;1.10;95.10;;;;;;5021291;28;20468;-82
2021/01/14 01:02:25;;;;;;;10.35;1.23;;;1.30;94.90;;;;;;4942279;27;20122;-83
2021/01/14 01:04:51;;;;;;;5.03;0.82;;;1.00;94.90;;;;;;4997328;28;20050;-83
2021/01/14 01:07:16;;;;;;;8.93;1.20;;;1.00;95.00;;;;;;4990125;28;20064;-82
2021/01/14 01:09:42;;;;;;;12.98;1.88;;;0.90;95.10;;;;;;5006717;28;20105;-82
2021/01/14 01:12:10;;;;;;;11.02;1.77;;;0.80;95.30;;;;;;4987737;27;20411;-82
2021/01/14 01:14:35;;;;;;;10.82;1.65;;;0.90;95.20;;;;;;5036214;28;20032;-82
2021/01/14 01:17:01;;;;;;;7.38;1.13;;;0.90;95.20;;;;;;4985971;28;20385;-82
2021/01/14 01:19:26;;;;;;;4.43;1.00;;;1.00;95.10;;;;;;5004301;28;20503;-83
2021/01/14 01:21:52;;;;;;;11.63;1.63;;;1.00;95.10;;;;;;5037926;27;20025;-84
2021/01/14 01:24:17;;;;;;;4.13;0.90;;;1.10;94.50;;;;;;4989200;28;20082;-83
2021/01/14 01:26:43;;;;;;;4.55;1.00;;;1.10;94.90;;;;;;4989801;28;20029;-84
2021/01/14 01:29:09;;;;;;;7.50;1.17;;;1.20;95.80;;;;;;4989534;28;20033;-82
2021/01/14 01:31:38;;;;;;;7.20;1.20;;;1.20;95.30;;;;;;5011840;28;20022;-82
2021/01/14 01:34:03;;;;;;;7.03;0.82;;;1.20;95.10;;;;;;5006294;28;20112;-81
2021/01/14 01:36:29;;;;;;;7.63;0.90;;;1.20;95.00;;;;;;4978000;28;20540;-81
2021/01/14 01:38:54;;;;;;;6.85;1.20;;;1.20;95.10;;;;;;5026244;28;20451;-81
2021/01/14 01:41:20;;;;;;;5.25;1.17;;;1.10;95.30;;;;;;5004582;28;20474;-82
2021/01/14 01:43:45;;;;;;;6.85;0.95;;;1.10;95.70;;;;;;5003446;27;20568;-82
2021/01/14 01:46:11;;;;;;;8.70;1.50;;;1.10;95.10;;;;;;5005616;27;20094;-82
2021/01/14 01:48:36;;;;;;;7.63;1.15;;;1.10;95.40;;;;;;5005485;27;20105;-81
2021/01/14 01:51:02;;;;;;;7.40;1.20;;;1.10;95.10;;;;;;4989308;28;20044;-81
2021/01/14 01:53:29;;;;;;;11.52;1.88;;;1.20;95.20;;;;;;5002564;28;20434;-81
2021/01/14 01:55:55;;;;;;;4.65;0.68;;;1.10;95.50;;;;;;5017853;28;20041;-80
2021/01/14 01:58:22;;;;;;;3.35;1.20;;;1.00;95.80;;;;;;4989142;28;20488;-82
2021/01/14 02:00:50;;;;;;;9.93;1.77;;;1.00;95.80;;;;;;5025946;28;20112;-83
2021/01/14 02:03:16;;;;;;;6.32;1.15;;;1.10;95.60;;;;;;4985062;28;20029;-84
2021/01/14 02:05:41;;;;;;;8.23;1.17;;;0.90;95.50;;;;;;5015700;27;20044;-84
2021/01/14 02:08:30;;;;;;;5.07;1.05;;;1.00;95.30;;;;;;4989631;28;20408;-84
2021/01/14 02:11:05;;;;;;;11.55;1.55;;;0.90;95.60;;;;;;5001124;28;20057;-83
2021/01/14 02:13:46;;;;;;;6.55;2.55;;;0.90;95.60;;;;;;5004319;28;20444;-84
2021/01/14 02:16:12;;;;;;;12.32;1.42;;;0.90;95.40;;;;;;4999140;28;20042;-82
2021/01/14 02:18:38;;;;;;;6.38;1.13;;;0.80;95.60;;;;;;4991459;28;20045;-83
2021/01/14 02:21:06;;;;;;;9.70;1.65;;;0.90;95.50;;;;;;5009135;28;20029;-83
2021/01/14 02:23:32;;;;;;;5.95;1.30;;;0.80;95.40;;;;;;5007812;28;20451;-83
2021/01/14 02:26:15;;;;;;;6.88;1.50;;;0.90;95.60;;;;;;5024786;28;20053;-83
2021/01/14 02:28:41;;;;;;;5.13;1.13;;;0.90;95.40;;;;;;5024456;28;20025;-82
2021/01/14 02:31:06;;;;;;;9.95;1.25;;;1.00;95.20;;;;;;5007464;28;20029;-82
2021/01/14 02:33:32;;;;;;;11.07;1.40;;;1.00;95.40;;;;;;5008334;28;20026;-83
2021/01/14 02:35:58;;;;;;;7.20;1.65;;;0.90;95.50;;;;;;4993008;28;20029;-82
2021/01/14 02:38:23;;;;;;;8.57;1.52;;;0.80;95.50;;;;;;4992060;28;20619;-82
2021/01/14 02:40:49;;;;;;;7.55;1.55;;;0.90;95.40;;;;;;5008610;28;20397;-81
2021/01/14 02:43:14;;;;;;;5.90;1.35;;;0.90;95.40;;;;;;4991320;28;20037;-83
2021/01/14 02:45:40;;;;;;;5.43;1.42;;;0.80;95.40;;;;;;5007269;28;20033;-82
2021/01/14 02:48:06;;;;;;;11.90;2.10;;;0.80;95.50;;;;;;5008006;28;20144;-82
2021/01/14 02:50:32;;;;;;;9.38;1.50;;;0.80;95.40;;;;;;4989115;28;20536;-83
2021/01/14 02:52:58;;;;;;;9.32;1.45;;;0.70;95.30;;;;;;5007932;28;20033;-83
2021/01/14 02:55:24;;;;;;;9.38;1.35;;;0.80;95.50;;;;;;5004995;28;20033;-83
2021/01/14 02:57:49;;;;;;;6.80;1.67;;;0.80;95.50;;;;;;4991763;28;20030;-83
2021/01/14 03:00:15;;;;;;;11.73;1.40;;;0.80;95.50;;;;;;4992211;28;20037;-82
2021/01/14 03:02:41;;;;;;;10.18;1.20;;;0.80;95.60;;;;;;5023588;28;20033;-82
2021/01/14 03:05:08;;;;;;;15.48;1.30;;;0.90;95.10;;;;;;4991803;28;20038;-82
2021/01/14 03:07:33;;;;;;;10.32;1.58;;;1.00;95.10;;;;;;4987794;28;20057;-83
2021/01/14 03:09:59;;;;;;;5.15;1.20;;;0.90;94.90;;;;;;4992019;28;20021;-83
2021/01/14 03:12:24;;;;;;;2.88;0.90;;;0.90;94.80;;;;;;5007825;27;20025;-83
2021/01/14 03:14:50;;;;;;;9.95;2.70;;;1.00;94.70;;;;;;5007362;27;20108;-82
2021/01/14 03:17:15;;;;;;;8.23;1.23;;;1.00;94.70;;;;;;4990114;28;20065;-83
2021/01/14 03:19:41;;;;;;;3.55;1.10;;;1.00;95.00;;;;;;4987660;28;20089;-81
2021/01/14 03:22:06;;;;;;;8.82;1.60;;;0.80;95.30;;;;;;4989205;28;20064;-82
2021/01/14 03:24:32;;;;;;;7.57;1.50;;;0.70;95.10;;;;;;5003426;28;20500;-83
2021/01/14 03:26:57;;;;;;;5.00;1.67;;;0.70;95.30;;;;;;4993732;27;20048;-82
2021/01/14 03:29:23;;;;;;;6.30;1.02;;;0.60;95.40;;;;;;5007831;28;20413;-81
2021/01/14 03:31:49;;;;;;;6.00;1.33;;;0.50;95.50;;;;;;4987320;28;20030;-82
2021/01/14 03:34:14;;;;;;;6.18;0.93;;;0.60;95.00;;;;;;5007345;27;20459;-82
2021/01/14 03:36:56;;;;;;;8.13;2.03;;;0.70;94.80;;;;;;5008188;27;20036;-81
2021/01/14 03:39:23;;;;;;;7.35;1.45;;;0.60;95.30;;;;;;4988137;28;20444;-82
2021/01/14 03:41:49;;;;;;;7.93;2.00;;;0.60;95.30;;;;;;5007869;27;20037;-83
2021/01/14 03:44:14;;;;;;;8.25;2.00;;;0.50;95.60;;;;;;5007927;28;20030;-82
2021/01/14 03:46:40;;;;;;;6.85;2.17;;;0.50;95.70;;;;;;5022450;28;20484;-83
2021/01/14 03:49:05;;;;;;;9.80;1.90;;;0.50;95.60;;;;;;4990151;28;20120;-83
2021/01/14 03:51:31;;;;;;;8.93;1.80;;;0.50;95.50;;;;;;4988312;28;20045;-83
2021/01/14 03:53:56;;;;;;;4.35;1.42;;;0.50;95.30;;;;;;5004850;27;20101;-82
2021/01/14 03:56:22;;;;;;;10.55;1.52;;;0.60;95.30;;;;;;5006734;28;20034;-83
2021/01/14 03:58:47;;;;;;;6.22;1.58;;;0.70;95.50;;;;;;5008058;27;20064;-83
2021/01/14 04:01:14;;;;;;;5.43;1.30;;;0.60;95.30;;;;;;4989857;28;20116;-83
2021/01/14 04:03:40;;;;;;;5.40;1.23;;;0.80;95.40;;;;;;4991029;28;20026;-82
2021/01/14 04:06:06;;;;;;;4.07;1.55;;;0.90;95.30;;;;;;5007185;28;20034;-81
2021/01/14 04:08:31;;;;;;;2.33;0.77;;;0.80;95.10;;;;;;5006459;28;20381;-82
2021/01/14 04:10:57;;;;;;;6.80;1.70;;;0.80;95.50;;;;;;4990673;28;20029;-83
2021/01/14 04:13:22;;;;;;;4.63;1.10;;;0.70;95.00;;;;;;5004694;28;20082;-84
2021/01/14 04:15:48;;;;;;;6.13;1.30;;;0.60;95.20;;;;;;5030539;27;20516;-83
2021/01/14 04:18:14;;;;;;;5.72;2.15;;;0.70;95.50;;;;;;4990902;27;20033;-83
2021/01/14 04:20:41;;;;;;;6.47;1.50;;;0.80;95.90;;;;;;4996256;27;20031;-83
2021/01/14 04:23:07;;;;;;;7.85;1.50;;;0.70;94.90;;;;;;5078777;27;20031;-82
2021/01/14 04:25:33;;;;;;;4.65;1.17;;;0.70;95.10;;;;;;5090314;27;20072;-84
2021/01/14 04:28:02;;;;;;;4.68;1.23;;;0.60;95.10;;;;;;5100870;27;20371;-83
2021/01/14 04:30:28;;;;;;;6.32;0.90;;;0.70;95.60;;;;;;5102879;27;20031;-82
2021/01/14 04:33:10;;;;;;;9.68;1.33;;;0.70;95.70;;;;;;5086776;27;20204;-83
2021/01/14 04:35:46;;;;;;;8.73;1.08;;;0.70;95.40;;;;;;5103520;27;20058;-83
2021/01/14 04:38:12;;;;;;;6.82;1.15;;;0.60;95.30;;;;;;5087403;27;20035;-83
2021/01/14 04:40:37;;;;;;;11.15;1.48;;;0.60;95.40;;;;;;5091659;27;20078;-81
2021/01/14 04:43:03;;;;;;;5.55;1.70;;;0.60;95.70;;;;;;5091343;27;20494;-82
2021/01/14 04:45:28;;;;;;;14.20;1.35;;;0.50;95.60;;;;;;5091312;27;20074;-81
2021/01/14 04:47:54;;;;;;;14.38;1.40;;;0.40;95.30;;;;;;5107172;27;20082;-83
2021/01/14 04:50:19;;;;;;;11.55;1.55;;;0.40;95.50;;;;;;5072732;27;20475;-81
2021/01/14 04:52:47;;;;;;;4.68;1.38;;;0.40;95.40;;;;;;5086737;27;20842;-81
2021/01/14 04:55:16;;;;;;;7.93;1.60;;;0.40;95.50;;;;;;5103327;27;20027;-82
2021/01/14 04:57:45;;;;;;;6.90;1.60;;;0.30;95.80;;;;;;5096943;27;20030;-82
2021/01/14 05:00:13;;;;;;;3.85;1.50;;;0.30;95.60;;;;;;5075403;27;20121;-84
2021/01/14 05:02:53;;;;;;;8.18;1.90;;;0.30;96.00;;;;;;5089263;27;20505;-85
2021/01/14 05:05:21;;;;;;;8.27;1.98;;;0.30;95.90;;;;;;5111633;27;20047;-85
2021/01/14 05:07:47;;;;;;;8.75;2.05;;;0.40;95.90;;;;;;5075383;27;20364;-84
2021/01/14 05:10:13;;;;;;;10.90;1.77;;;0.30;96.00;;;;;;5075258;27;20042;-82
2021/01/14 05:12:38;;;;;;;6.85;1.55;;;0.30;96.00;;;;;;5091431;27;20429;-81
2021/01/14 05:15:04;;;;;;;8.95;1.77;;;0.30;95.90;;;;;;5093359;27;20031;-83
2021/01/14 05:17:30;;;;;;;7.18;1.80;;;0.50;95.90;;;;;;5069693;27;20032;-82
2021/01/14 05:19:57;;;;;;;6.85;1.98;;;0.40;95.70;;;;;;5088778;27;20790;-82
2021/01/14 05:22:23;;;;;;;12.27;1.90;;;0.30;96.20;;;;;;5087282;27;20027;-82
2021/01/14 05:25:06;;;;;;;6.03;1.33;;;0.20;96.20;;;;;;5089066;27;20495;-81
2021/01/14 05:27:32;;;;;;;8.15;1.48;;;0.20;96.20;;;;;;5074318;27;20038;-82
2021/01/14 05:30:07;;;;;;;9.38;2.28;;;0.20;96.40;;;;;;5108812;27;20031;-83
2021/01/14 05:32:43;;;;;;;9.90;1.52;;;0.20;96.20;;;;;;5097233;27;20076;-83
2021/01/14 05:35:10;;;;;;;11.85;2.40;;;0.20;96.20;;;;;;5077936;27;20039;-82
2021/01/14 05:37:37;;;;;;;7.72;1.23;;;0.20;96.40;;;;;;5092598;27;20486;-84
2021/01/14 05:40:04;;;;;;;5.70;1.30;;;0.20;96.40;;;;;;5089392;27;20039;-85
2021/01/14 05:42:30;;;;;;;4.88;1.23;;;0.30;96.40;;;;;;5091141;28;20031;-83
2021/01/14 05:44:55;;;;;;;3.58;1.23;;;0.20;96.20;;;;;;5092496;27;20038;-84
2021/01/14 05:47:22;;;;;;;5.55;1.50;;;0.20;96.40;;;;;;5091836;27;20114;-83
2021/01/14 05:50:01;;;;;;;10.93;1.52;;;0.20;96.20;;;;;;5090988;27;20031;-83
2021/01/14 05:52:28;;;;;;;4.03;0.93;;;0.20;96.30;;;;;;5082726;28;20083;-83
2021/01/14 05:55:07;;;;;;;10.60;1.48;;;0.20;96.30;;;;;;5080458;28;20023;-83
2021/01/14 05:57:34;;;;;;;5.50;2.45;;;0.20;96.30;;;;;;5081966;28;20027;-83
2021/01/14 06:00:06;;;;;;;6.80;1.33;;;0.20;96.40;;;;;;5074935;28;20032;-82
2021/01/14 06:02:32;;;;;;;5.22;1.23;;;0.20;96.30;;;;;;5096882;28;20616;-82
2021/01/14 06:04:58;;;;;;;11.13;1.58;;;0.30;96.00;;;;;;5084261;28;20052;-82
2021/01/14 06:07:36;;;;;;;8.90;1.45;;;0.20;96.30;;;;;;5091229;28;20059;-82
2021/01/14 06:10:01;;;;;;;11.05;1.77;;;0.20;96.30;;;;;;5079300;28;20035;-82
2021/01/14 06:12:27;;;;;;;12.02;1.88;;;0.20;96.40;;;;;;5075179;28;20169;-83
2021/01/14 06:14:53;;;;;;;5.50;1.73;;;0.20;96.20;;;;;;5076686;28;20462;-83
2021/01/14 06:17:18;;;;;;;9.13;1.33;;;0.20;96.20;;;;;;5074647;28;20398;-82
2021/01/14 06:19:44;;;;;;;6.55;1.65;;;0.20;96.10;;;;;;5089048;28;20031;-82
2021/01/14 06:22:14;;;;;;;10.82;1.92;;;0.20;96.20;;;;;;5087212;28;20451;-83
2021/01/14 06:24:39;;;;;;;9.15;2.05;;;0.20;95.90;;;;;;5081903;28;20038;-81
2021/01/14 06:27:05;;;;;;;10.85;1.63;;;0.20;95.80;;;;;;5108232;28;20028;-83
2021/01/14 06:29:42;;;;;;;8.15;1.83;;;0.20;96.00;;;;;;5108296;27;20042;-82
2021/01/14 06:32:12;;;;;;;9.35;2.30;;;0.10;96.20;;;;;;5088707;28;20062;-83
2021/01/14 06:34:39;;;;;;;12.23;2.70;;;0.10;96.20;;;;;;5073918;28;20019;-82
2021/01/14 06:37:37;;;;;;;3.53;1.40;;;0.10;96.30;;;;;;5109450;28;20031;-82
2021/01/14 06:40:04;;;;;;;6.55;1.92;;;0.10;96.00;;;;;;5037221;28;20430;-80
2021/01/14 06:42:34;;;;;;;6.97;1.40;;;0.10;96.00;;;;;;5090547;28;20571;-82
2021/01/14 06:45:09;;;;;;;9.80;1.45;;;0.10;96.20;;;;;;5092281;28;20359;-82
2021/01/14 06:47:39;;;;;;;7.22;1.42;;;0.10;96.00;;;;;;5085125;28;20114;-82
2021/01/14 06:50:17;;;;;;;6.22;2.00;;;0.10;95.80;;;;;;5069702;28;20399;-80
2021/01/14 06:52:50;;;;;;;5.40;1.50;;;0.10;95.90;;;;;;5083062;28;20031;-81
2021/01/14 06:55:16;;;;;;;6.68;1.73;;;0.10;95.90;;;;;;5090479;28;20034;-81
2021/01/14 06:57:54;;;;;;;10.07;1.70;;;0.10;95.80;;;;;;5084022;28;20032;-81
2021/01/14 07:00:20;;;;;;;7.97;2.17;;;0.10;95.60;;;;;;5074971;28;20050;-81
2021/01/14 07:02:52;;;;;;;6.78;1.58;;;0.20;95.80;;;;;;5074348;28;20031;-81
2021/01/14 07:05:38;;;;;;;5.90;1.70;;;0.10;95.80;;;;;;5088304;27;20075;-83
2021/01/14 07:08:28;;;;;;;8.52;1.70;;;0.10;95.70;;;;;;5097045;27;20038;-83
2021/01/14 07:11:05;;;;;;;6.05;1.70;;;0.20;96.00;;;;;;5127053;27;20613;-82
2021/01/14 07:13:41;;;;;;;11.80;2.03;;;0.20;96.10;;;;;;5104427;28;20023;-83
2021/01/14 07:16:08;;;;;;;8.98;2.05;;;0.10;95.70;;;;;;5082126;28;20031;-82
2021/01/14 07:18:34;;;;;;;5.53;1.70;;;0.00;95.60;;;;;;5092766;27;20035;-81
2021/01/14 07:21:15;;;;;;;6.78;2.10;;;0.10;95.80;;;;;;5087119;27;20046;-81
2021/01/14 07:23:50;;;;;;;10.32;2.20;;;0.10;95.90;;;;;;5104176;27;20118;-81
2021/01/14 07:26:16;;;;;;;9.77;1.83;;;0.10;95.90;;;;;;5076354;27;20035;-81
2021/01/14 07:28:41;;;;;;;5.53;1.90;;;0.10;95.70;;;;;;5094701;27;20031;-81
2021/01/14 07:31:26;;;;;;;11.02;2.58;;;0.10;95.90;;;;;;5093025;27;20031;-81
2021/01/14 07:33:52;;;;;;;11.95;3.30;;;0.10;96.10;;;;;;5072326;27;20053;-81
2021/01/14 07:36:25;;;;;;;8.45;1.90;;;0.20;96.20;;;;;;5072560;27;20474;-81
2021/01/14 07:38:55;;;;;;;5.97;1.55;;;0.20;95.90;;;;;;5086876;27;20031;-81
2021/01/14 07:41:21;;;;;;;16.95;2.22;;;0.20;96.10;;;;;;4725138;27;10000574;-81
2021/01/14 07:43:47;;;;;;;9.52;1.98;;;0.00;96.00;;;;;;5102737;27;20028;-81
2021/01/14 07:46:20;;;;;;;11.05;1.85;;;0.00;96.00;;;;;;5066443;28;20431;-80
2021/01/14 07:48:47;;;;;;;9.65;1.60;;;0.00;95.70;;;;;;5067182;27;20119;-81
2021/01/14 07:51:12;;;;;;;14.45;2.38;;;-0.10;96.10;;;;;;5078934;27;20062;-81
2021/01/14 07:53:38;;;;;;;6.93;1.88;;;-0.20;96.10;;;;;;5090990;27;20459;-80
2021/01/14 07:56:49;;;;;;;6.20;1.85;;;-0.20;96.40;;;;;;5090211;27;20023;-80
2021/01/14 07:59:24;;;;;;;15.73;2.63;;;-0.20;96.30;;;;;;5073817;27;20797;-81
2021/01/14 08:01:59;;;;;;;7.37;2.03;;;-0.10;96.50;;;;;;5089288;27;20046;-81
2021/01/14 08:04:24;;;;;;;12.73;2.60;;;-0.20;96.50;;;;;;5092446;27;20063;-80
2021/01/14 08:06:50;;;;;;;9.38;1.88;;;-0.20;96.60;;;;;;5089218;27;20556;-80
2021/01/14 08:09:15;;;;;;;7.60;2.25;;;-0.10;96.50;;;;;;5081022;27;20475;-81
2021/01/14 08:11:47;;;;;;;6.20;2.88;;;-0.10;96.50;;;;;;5074436;27;20221;-81
2021/01/14 08:14:23;;;;;;;6.30;2.08;;;0.00;96.40;;;;;;5106017;27;20034;-81
2021/01/14 08:16:50;;;;;;;7.88;2.55;;;-0.10;96.50;;;;;;5075112;27;20032;-81
2021/01/14 08:19:15;;;;;;;10.52;2.58;;;-0.10;96.60;;;;;;5091104;27;20054;-81
2021/01/14 08:21:47;;;;;;;7.57;1.80;;;-0.10;96.70;;;;;;5107122;27;20559;-81
2021/01/14 08:24:51;;;;;;;12.18;2.05;;;0.00;96.60;;;;;;5076117;27;20394;-81
2021/01/14 08:27:37;;;;;;;10.52;2.38;;;0.00;96.70;;;;;;5090004;27;20074;-81
2021/01/14 08:30:07;;;;;;;6.63;2.40;;;0.00;96.80;;;;;;5084980;28;20439;-81
2021/01/14 08:32:36;;;;;;;8.80;2.55;;;0.10;96.90;;;;;;5075214;27;20027;-81
2021/01/14 08:35:09;;;;;;;5.13;1.95;;;0.10;97.00;;;;;;5087666;27;20557;-81
2021/01/14 08:37:57;;;;;;;7.05;2.00;;;0.10;96.90;;;;;;5087540;28;20023;-81
2021/01/14 08:40:24;;;;;;;7.05;2.35;;;0.10;97.00;;;;;;5077556;27;20042;-81
2021/01/14 08:42:59;;;;;;;11.88;3.03;;;0.20;97.10;;;;;;5092627;27;20558;-81
2021/01/14 08:45:27;;;;;;;10.57;2.47;;;0.20;97.20;;;;;;5109881;27;20393;-81
2021/01/14 08:47:59;;;;;;;12.25;3.55;;;0.20;97.10;;;;;;5075578;27;20088;-81
2021/01/14 08:50:47;;;;;;;12.25;5.40;;;0.30;97.20;;;;;;5103040;27;20042;-82
2021/01/14 08:53:19;;;;;;;10.55;5.60;;;0.40;97.20;;;;;;5087598;27;20024;-81
2021/01/14 08:55:54;;;;;;;14.77;8.45;;;0.40;97.10;;;;;;5127519;27;20036;-82
2021/01/14 08:58:20;;;;;;;10.80;7.13;;;0.50;97.10;;;;;;5092766;27;20036;-81
2021/01/14 09:00:48;;;;;;;12.50;7.43;;;0.50;97.10;;;;;;5090393;27;20071;-81
2021/01/14 09:03:14;;;;;;;14.85;8.15;;;0.50;97.20;;;;;;5069606;27;20437;-82
2021/01/14 09:05:44;;;;;;;14.25;9.10;;;0.70;97.10;;;;;;5074897;27;20031;-81
2021/01/14 09:08:10;;;;;;;11.75;7.43;;;0.70;97.20;;;;;;5087910;27;20047;-82
2021/01/14 09:10:39;;;;;;;13.95;8.65;;;0.70;97.30;;;;;;5090509;27;20462;-82
2021/01/14 09:13:12;;;;;;;15.15;8.55;;;0.80;97.40;;;;;;5101905;27;20165;-82
2021/01/14 09:15:37;;;;;;;13.40;8.05;;;0.90;97.20;;;;;;5090286;27;20398;-81
2021/01/14 09:18:03;;;;;;;11.65;7.88;;;0.80;97.20;;;;;;5086659;28;20036;-82
2021/01/14 09:20:29;;;;;;;11.10;7.68;;;0.90;97.30;;;;;;5079194;27;20487;-82
2021/01/14 09:22:58;;;;;;;14.95;8.57;;;1.00;97.20;;;;;;5076097;27;20429;-82
2021/01/14 09:25:33;;;;;;;12.88;8.55;;;1.00;97.20;;;;;;5063037;28;20067;-81
2021/01/14 09:27:59;;;;;;;12.82;6.85;;;1.10;96.60;;;;;;5086393;27;20118;-81
2021/01/14 09:30:25;;;;;;;14.18;8.13;;;1.10;97.10;;;;;;5077520;28;20114;-82
2021/01/14 09:32:59;;;;;;;16.13;7.95;;;1.20;96.30;;;;;;5102206;27;20494;-81
2021/01/14 09:35:26;;;;;;;8.80;5.95;;;1.20;96.80;;;;;;5075696;27;20106;-81
2021/01/14 09:37:55;;;;;;;11.65;7.03;;;1.20;96.80;;;;;;5090868;27;20474;-81
2021/01/14 09:40:21;;;;;;;10.88;6.95;;;1.20;96.70;;;;;;5078526;27;20058;-80
2021/01/14 09:42:49;;;;;;;11.80;7.80;;;1.30;97.00;;;;;;5087916;28;20584;-81
2021/01/14 09:45:16;;;;;;;11.40;7.45;;;1.30;96.90;;;;;;5072817;28;20412;-81
2021/01/14 09:47:44;;;;;;;14.48;7.30;;;1.20;96.80;;;;;;5086418;27;20051;-81
2021/01/14 09:50:13;;;;;;;10.13;6.78;;;1.30;96.80;;;;;;5075494;28;20027;-81
2021/01/14 09:52:38;;;;;;;9.10;6.20;;;1.30;96.10;;;;;;5106040;28;20043;-82
2021/01/14 09:55:06;;;;;;;8.57;5.32;;;1.30;96.60;;;;;;5087605;28;20061;-81
2021/01/14 09:57:33;;;;;;;7.25;5.32;;;1.30;96.60;;;;;;5084067;28;20038;-81
2021/01/14 10:00:00;;;;;;;9.77;5.45;;;1.30;96.60;;;;;;5092351;28;20030;-82
2021/01/14 10:02:27;;;;;;;10.10;6.47;;;1.40;96.20;;;;;;5091734;28;20546;-82
2021/01/14 10:04:59;;;;;;;13.25;7.00;;;1.50;96.00;;;;;;5091714;28;20031;-82
2021/01/14 10:07:25;;;;;;;10.02;6.00;;;1.90;95.10;;;;;;5092782;28;20124;-81
2021/01/14 10:09:54;;;;;;;10.15;6.15;;;2.10;95.80;;;;;;5090948;28;20027;-81
2021/01/14 10:12:19;;;;;;;13.23;7.20;;;2.20;95.30;;;;;;5088052;28;20050;-81
2021/01/14 10:14:45;;;;;;;8.32;4.93;;;2.30;95.20;;;;;;5091885;28;20027;-81
2021/01/14 10:17:11;;;;;;;9.32;5.53;;;2.40;94.50;;;;;;5075765;27;20023;-81
2021/01/14 10:19:40;;;;;;;8.13;5.55;;;2.50;94.40;;;;;;5088514;28;20076;-82
2021/01/14 10:22:06;;;;;;;6.90;4.85;;;2.70;93.60;;;;;;5091483;28;20031;-82
2021/01/14 10:24:32;;;;;;;5.53;3.97;;;2.50;95.30;;;;;;5064921;28;20031;-82
2021/01/14 10:27:13;;;;;;;5.82;3.95;;;2.50;95.90;;;;;;5103340;28;20028;-82
2021/01/14 10:29:39;;;;;;;8.90;4.93;;;2.80;96.00;;;;;;5070464;28;20035;-82
2021/01/14 10:32:06;;;;;;;10.25;4.22;;;2.70;96.00;;;;;;5074162;28;20399;-81
2021/01/14 10:34:41;;;;;;;5.35;3.92;;;2.70;95.80;;;;;;5090634;28;20036;-82
2021/01/14 10:37:22;;;;;;;7.25;3.92;;;2.70;95.70;;;;;;5122261;28;20043;-81
2021/01/14 10:39:49;;;;;;;6.05;4.13;;;3.10;94.40;;;;;;5092386;28;20549;-82
2021/01/14 10:42:25;;;;;;;9.27;4.10;;;3.20;94.20;;;;;;5097277;27;20031;-82
2021/01/14 10:44:54;;;;;;;7.18;4.05;;;3.50;93.00;;;;;;5112426;27;20074;-82
2021/01/14 10:47:23;;;;;;;8.07;3.90;;;3.50;93.00;;;;;;5113361;27;20487;-81
2021/01/14 10:49:49;;;;;;;5.72;3.38;;;3.40;93.70;;;;;;5079510;27;20054;-81
2021/01/14 10:52:14;;;;;;;6.25;3.53;;;3.50;93.40;;;;;;5083484;27;20455;-82
2021/01/14 10:54:40;;;;;;;5.95;2.78;;;3.60;92.90;;;;;;5080821;27;20038;-82
2021/01/14 10:57:05;;;;;;;6.07;3.30;;;3.80;92.50;;;;;;5083559;27;20062;-81
2021/01/14 10:59:33;;;;;;;8.50;2.70;;;3.70;91.80;;;;;;5094634;27;20023;-80
2021/01/14 11:02:03;;;;;;;6.63;3.50;;;3.70;92.20;;;;;;5093869;27;20031;-80
2021/01/14 11:04:29;;;;;;;5.10;2.90;;;3.60;93.90;;;;;;5084987;27;20028;-81
2021/01/14 11:06:54;;;;;;;8.07;3.58;;;3.60;93.70;;;;;;5094320;27;20023;-81
2021/01/14 11:09:20;;;;;;;8.65;3.58;;;3.80;94.20;;;;;;5110781;27;20031;-81
2021/01/14 11:11:46;;;;;;;4.97;2.40;;;4.00;94.40;;;;;;5074654;27;20043;-82
2021/01/14 11:14:15;;;;;;;6.25;2.55;;;3.60;94.40;;;;;;5086708;27;20023;-81
2021/01/14 11:16:43;;;;;;;3.60;1.85;;;3.70;93.00;;;;;;5092508;27;20027;-81
2021/01/14 11:19:10;;;;;;;6.38;2.10;;;3.60;93.50;;;;;;5091015;27;20130;-81
2021/01/14 11:21:37;;;;;;;8.10;2.58;;;3.70;93.20;;;;;;5094630;27;20311;-82
2021/01/14 11:24:03;;;;;;;3.78;2.05;;;3.60;94.90;;;;;;5094721;27;20034;-81
2021/01/14 11:26:29;;;;;;;4.03;2.15;;;3.50;95.20;;;;;;5093397;27;20042;-81
2021/01/14 11:28:55;;;;;;;6.05;2.25;;;3.50;95.60;;;;;;5109995;27;20027;-81
2021/01/14 11:31:22;;;;;;;4.53;2.55;;;3.50;95.20;;;;;;5078430;27;20046;-80
2021/01/14 11:33:47;;;;;;;5.78;2.83;;;3.60;96.20;;;;;;5096498;27;20027;-80
2021/01/14 11:36:14;;;;;;;7.82;2.90;;;3.60;96.60;;;;;;5099943;27;20093;-81
2021/01/14 11:38:42;;;;;;;4.53;2.13;;;3.70;95.80;;;;;;5078109;27;20367;-81
2021/01/14 11:41:08;;;;;;;9.38;2.05;;;3.70;96.50;;;;;;5093914;27;20049;-81
2021/01/14 11:43:33;;;;;;;3.55;2.13;;;3.70;96.40;;;;;;5077003;27;20114;-81
2021/01/14 11:46:02;;;;;;;5.15;2.78;;;4.10;95.70;;;;;;5090956;28;20039;-84
2021/01/14 11:48:27;;;;;;;6.38;1.77;;;4.20;94.60;;;;;;5094868;27;20031;-84
2021/01/14 11:50:53;;;;;;;4.47;2.88;;;3.90;95.60;;;;;;5108595;27;20038;-82
2021/01/14 11:53:20;;;;;;;3.35;2.10;;;3.90;96.00;;;;;;5108620;27;20691;-81
2021/01/14 11:55:45;;;;;;;3.47;2.53;;;4.20;94.10;;;;;;5093725;27;20029;-82
2021/01/14 11:58:11;;;;;;;3.85;2.50;;;4.30;94.00;;;;;;4748727;27;10000374;-82
2021/01/14 12:00:36;;;;;;;6.15;2.55;;;4.80;92.40;;;;;;5089584;27;20543;-82
2021/01/14 12:03:05;;;;;;;6.95;2.58;;;4.90;91.50;;;;;;5084655;27;20470;-82
2021/01/14 12:05:31;;;;;;;4.20;2.65;;;4.60;93.90;;;;;;5087495;27;20070;-82
2021/01/14 12:07:56;;;;;;;5.10;2.80;;;4.50;93.70;;;;;;5074720;27;20501;-81
2021/01/14 12:10:22;;;;;;;3.00;2.10;;;4.60;92.60;;;;;;5087616;27;20032;-81
2021/01/14 12:12:48;;;;;;;5.75;2.28;;;4.50;93.00;;;;;;5091467;27;20045;-82
2021/01/14 12:15:14;;;;;;;4.30;2.03;;;4.30;94.50;;;;;;5078475;27;20058;-83
2021/01/14 12:17:40;;;;;;;4.43;2.15;;;4.30;94.80;;;;;;5089109;27;20028;-82
2021/01/14 12:20:06;;;;;;;4.05;2.13;;;4.20;94.90;;;;;;5088032;27;20042;-82
2021/01/14 12:22:34;;;;;;;3.92;2.30;;;4.40;92.60;;;;;;5074901;27;20027;-82
2021/01/14 12:24:59;;;;;;;2.72;1.65;;;4.50;93.30;;;;;;5083670;28;20059;-82
2021/01/14 12:27:25;;;;;;;3.25;1.77;;;4.60;93.50;;;;;;5083985;27;20054;-82
2021/01/14 12:29:50;;;;;;;3.80;2.15;;;4.60;93.40;;;;;;5089095;27;20104;-83
2021/01/14 12:32:16;;;;;;;5.25;2.40;;;5.50;92.00;;;;;;5079807;27;20463;-82
2021/01/14 12:34:42;;;;;;;7.30;2.75;;;5.30;91.70;;;;;;5089498;27;20027;-82
2021/01/14 12:37:07;;;;;;;6.72;2.80;;;5.10;91.50;;;;;;5089548;27;20026;-82
2021/01/14 12:39:33;;;;;;;4.82;2.28;;;4.80;92.60;;;;;;5074534;27;20046;-81
2021/01/14 12:41:59;;;;;;;5.35;3.00;;;5.50;92.60;;;;;;5085206;27;20038;-82
2021/01/14 12:44:28;;;;;;;4.25;2.30;;;5.70;91.00;;;;;;5089916;27;20080;-82
2021/01/14 12:46:57;;;;;;;6.13;2.47;;;5.20;92.70;;;;;;5092329;27;20023;-82
2021/01/14 12:49:22;;;;;;;4.75;2.53;;;4.70;93.50;;;;;;5076819;27;20092;-82
2021/01/14 12:51:49;;;;;;;3.05;2.03;;;4.60;94.30;;;;;;5092547;27;20458;-83
2021/01/14 12:54:15;;;;;;;5.80;2.42;;;4.50;94.10;;;;;;5095423;27;20088;-82
2021/01/14 12:56:43;;;;;;;8.95;2.40;;;4.40;94.40;;;;;;5089149;27;20023;-81
2021/01/14 12:59:10;;;;;;;5.70;2.40;;;4.30;94.90;;;;;;5089085;27;20462;-82